ACO weather

CLOSED Ascona Airport
Ascona, Canton of Ticino, Switzerland

Public forecast

Using degrees Celsius for public forecast. Weather courtesy of forecast.io.

METAR (pilot weather report)

Closest report is Locarno Airport, 4.0 nm (7.5 km) E. Retrieved 2019/06/17 17:20 UTC (39 minutes ago):

LSZL 171720Z AUTO 25003KT 9999NDV NCD 28/16 Q1014 RMK

TAF (pilot weather forecast)

Closest forecast is Malpensa International Airport, 31.7 nm (58.8 km) S. Retrieved 2019/06/17 12:21 UTC (6 hours ago):

TAF LIMC 171100Z 1712/1818 VRB05KT CAVOK PROB30 TEMPO 1722/1802 TSRA